Time;durP1;ratioP1;P1;durP2;ratioP2;P2;SDS_P1;SDS_P2;PMS_P1;PMS_P2;Temp;Humidity;BMP_temperature;BMP_pressure;BME280_temperature;BME280_humidity;BME280_pressure;Samples;Min_cycle;Max_cycle;Signal;HPM_P1;HPM_P2
2021/04/05 00:00:26;;;;;;;4.88;2.10;;;;;;;4.50;53.25;98889.22;5043166;28;20032;-59
2021/04/05 00:02:52;;;;;;;4.65;2.50;;;;;;;4.93;53.09;98965.75;5043762;28;20040;-59
2021/04/05 00:05:29;;;;;;;4.43;2.80;;;;;;;4.44;53.84;98896.97;5043460;28;20021;-59
2021/04/05 00:07:54;;;;;;;3.38;2.33;;;;;;;4.87;54.09;98958.09;5043425;28;20030;-59
2021/04/05 00:10:45;;;;;;;3.78;2.65;;;;;;;4.70;53.84;98912.09;5043193;28;20029;-60
2021/04/05 00:13:16;;;;;;;4.00;2.33;;;;;;;4.83;52.98;98928.19;5043527;28;20079;-57
2021/04/05 00:15:42;;;;;;;4.60;2.50;;;;;;;4.91;53.66;98956.34;5043497;28;20088;-58
2021/04/05 00:18:09;;;;;;;5.80;2.83;;;;;;;4.94;53.50;98951.19;5043454;28;20041;-58
2021/04/05 00:20:39;;;;;;;4.43;2.60;;;;;;;4.99;53.54;98954.56;5043346;28;20314;-58
2021/04/05 00:23:05;;;;;;;6.50;2.63;;;;;;;4.94;53.30;98941.75;5043389;28;20104;-58
2021/04/05 00:25:33;;;;;;;3.60;2.47;;;;;;;4.94;53.12;98954.59;5043373;28;20030;-58
2021/04/05 00:28:01;;;;;;;6.40;2.17;;;;;;;4.79;53.62;98932.53;5043320;28;20044;-59
2021/04/05 00:30:33;;;;;;;3.60;2.00;;;;;;;4.53;53.49;98890.91;5043236;28;20030;-59
2021/04/05 00:32:59;;;;;;;3.92;2.45;;;;;;;5.01;53.51;98955.38;5043304;28;20330;-59
2021/04/05 00:35:31;;;;;;;2.53;1.98;;;;;;;4.41;54.05;98895.28;5043260;28;20037;-58
2021/04/05 00:37:58;;;;;;;2.83;2.35;;;;;;;4.83;53.65;98931.63;5043273;28;20029;-59
2021/04/05 00:40:32;;;;;;;5.70;2.38;;;;;;;4.83;53.81;98938.47;5043152;28;20037;-59
2021/04/05 00:42:58;;;;;;;3.83;2.33;;;;;;;4.95;54.12;98937.50;5043295;28;20029;-58
2021/04/05 00:45:24;;;;;;;4.55;2.30;;;;;;;4.91;53.43;98926.41;5043340;28;20061;-58
2021/04/05 00:47:53;;;;;;;4.05;1.80;;;;;;;4.81;54.43;98940.19;5043236;28;20040;-58
2021/04/05 00:50:37;;;;;;;3.72;2.25;;;;;;;4.83;53.68;98907.69;5043084;28;20096;-58
2021/04/05 00:53:08;;;;;;;6.00;2.47;;;;;;;4.93;54.23;98917.00;5043410;28;20100;-59
2021/04/05 00:55:35;;;;;;;3.05;2.05;;;;;;;5.05;54.13;98925.44;5043170;28;20026;-58
2021/04/05 00:58:03;;;;;;;2.58;2.05;;;;;;;4.95;53.89;98938.34;5043114;28;20029;-58
2021/04/05 01:00:32;;;;;;;2.95;2.00;;;;;;;4.89;54.70;98923.03;5043020;28;20221;-57
2021/04/05 01:02:58;;;;;;;2.58;1.90;;;;;;;4.88;54.98;98923.03;5041887;28;20033;-58
2021/04/05 01:05:24;;;;;;;4.28;1.95;;;;;;;4.86;54.59;98915.38;5027232;28;20029;-59
2021/04/05 01:07:51;;;;;;;2.25;1.88;;;;;;;4.90;54.68;98908.47;5026907;28;20025;-59
2021/04/05 01:10:18;;;;;;;5.28;1.60;;;;;;;4.75;54.38;98909.50;5026878;28;20053;-59
2021/04/05 01:12:44;;;;;;;5.82;2.08;;;;;;;4.89;55.52;98904.19;5026904;28;20029;-58
2021/04/05 01:15:12;;;;;;;1.95;1.45;;;;;;;4.42;54.66;98844.88;5009289;28;20034;-58
2021/04/05 01:17:38;;;;;;;3.35;1.90;;;;;;;4.76;55.83;98908.59;5026743;28;20060;-58
2021/04/05 01:20:09;;;;;;;2.42;1.50;;;;;;;4.48;54.97;98840.53;5026649;28;20045;-58
2021/04/05 01:22:35;;;;;;;2.85;1.67;;;;;;;4.77;54.83;98894.94;5026973;28;20306;-58
2021/04/05 01:25:03;;;;;;;3.53;1.40;;;;;;;4.80;54.58;98895.75;5026688;28;20030;-58
2021/04/05 01:27:29;;;;;;;1.63;1.33;;;;;;;4.86;54.49;98899.97;5026689;28;20033;-57
2021/04/05 01:29:56;;;;;;;3.55;1.80;;;;;;;4.96;54.93;98899.00;5037033;28;20136;-57
2021/04/05 01:32:22;;;;;;;3.58;1.80;;;;;;;4.91;54.55;98898.19;5046299;28;20376;-57
2021/04/05 01:34:47;;;;;;;3.25;1.40;;;;;;;5.03;54.08;98888.66;5046260;28;20033;-58
2021/04/05 01:37:13;;;;;;;2.83;1.48;;;;;;;4.94;53.75;98885.31;5046220;28;20087;-58
2021/04/05 01:39:39;;;;;;;2.25;1.38;;;;;;;5.00;53.32;98892.97;5046182;28;20025;-57
2021/04/05 01:42:07;;;;;;;2.40;1.58;;;;;;;5.06;54.54;98896.31;5046251;28;20191;-57
2021/04/05 01:44:38;;;;;;;3.58;1.48;;;;;;;5.00;54.03;98905.78;5046179;28;20034;-57
2021/04/05 01:47:08;;;;;;;1.80;1.40;;;;;;;5.00;53.98;98898.09;5046060;28;20033;-57
2021/04/05 01:49:34;;;;;;;6.28;1.63;;;;;;;5.06;54.36;98907.44;5045982;28;20032;-58
2021/04/05 01:52:00;;;;;;;2.13;1.40;;;;;;;4.92;53.68;98893.94;5045955;28;20037;-58
2021/04/05 01:54:25;;;;;;;3.75;1.60;;;;;;;4.90;55.35;98900.78;5046083;28;20238;-58
2021/04/05 01:56:51;;;;;;;4.30;1.80;;;;;;;4.82;54.02;98900.88;5046157;28;20108;-58
2021/04/05 01:59:17;;;;;;;2.90;1.50;;;;;;;4.96;54.21;98898.13;5045904;28;20060;-58
2021/04/05 02:01:43;;;;;;;2.67;1.50;;;;;;;4.80;54.43;98888.06;5045763;28;20230;-58
2021/04/05 02:04:10;;;;;;;2.17;1.58;;;;;;;4.97;53.92;98887.88;5045772;28;20056;-58
2021/04/05 02:06:36;;;;;;;2.25;1.50;;;;;;;4.98;54.00;98897.25;5045756;28;20385;-58
2021/04/05 02:09:07;;;;;;;2.33;1.50;;;;;;;4.87;53.97;98891.38;5045705;28;20053;-58
2021/04/05 02:11:36;;;;;;;2.72;1.65;;;;;;;4.58;54.36;98830.19;5045662;28;20018;-59
2021/04/05 02:14:07;;;;;;;4.20;1.73;;;;;;;4.96;54.11;98891.31;5044905;28;20034;-60
2021/04/05 02:16:33;;;;;;;5.00;1.83;;;;;;;4.83;54.03;98882.91;5045500;28;20036;-60
2021/04/05 02:19:00;;;;;;;1.50;1.40;;;;;;;4.87;53.45;98878.56;5045456;28;20041;-59
2021/04/05 02:21:28;;;;;;;3.42;2.22;;;;;;;4.84;53.67;98881.16;5045357;28;20033;-58
2021/04/05 02:23:59;;;;;;;1.70;1.58;;;;;;;4.96;53.73;98883.59;5045342;28;20034;-58
2021/04/05 02:26:28;;;;;;;2.50;1.80;;;;;;;4.91;54.23;98880.22;5045294;28;20030;-59
2021/04/05 02:28:59;;;;;;;6.55;1.85;;;;;;;4.92;53.07;98891.38;5042963;28;20048;-58
2021/04/05 02:31:27;;;;;;;2.67;1.70;;;;;;;4.87;53.92;98878.56;5035250;28;20037;-59
2021/04/05 02:33:56;;;;;;;2.08;1.80;;;;;;;4.92;53.18;98873.41;5045189;28;20080;-60
2021/04/05 02:36:27;;;;;;;1.80;1.60;;;;;;;4.42;52.93;98814.13;5044015;28;20045;-59
2021/04/05 02:38:59;;;;;;;3.05;1.80;;;;;;;4.46;53.96;98814.06;5045170;28;20029;-57
2021/04/05 02:41:28;;;;;;;5.57;2.30;;;;;;;4.72;54.14;98882.16;5044962;28;20322;-57
2021/04/05 02:43:55;;;;;;;2.03;1.77;;;;;;;4.70;54.35;98871.06;5044939;28;20337;-57
2021/04/05 02:46:25;;;;;;;3.30;1.80;;;;;;;4.44;54.17;98809.81;5036773;28;20398;-57
2021/04/05 02:48:52;;;;;;;2.05;1.80;;;;;;;4.68;54.31;98866.84;5005455;28;20034;-57
2021/04/05 02:51:19;;;;;;;4.50;2.03;;;;;;;4.65;54.09;98862.59;5005268;28;20034;-58
2021/04/05 02:53:49;;;;;;;2.70;1.80;;;;;;;4.64;54.00;98869.41;5005383;28;20045;-59
2021/04/05 02:56:15;;;;;;;4.20;1.98;;;;;;;4.73;53.83;98849.66;4997258;28;20051;-59
2021/04/05 02:58:45;;;;;;;6.15;2.25;;;;;;;4.77;54.04;98857.28;4985953;28;20090;-59
2021/04/05 03:01:12;;;;;;;3.30;1.70;;;;;;;4.82;53.92;98854.69;4985664;28;20038;-59
2021/04/05 03:03:42;;;;;;;4.07;2.25;;;;;;;4.79;54.22;98865.84;5000829;28;20098;-59
2021/04/05 03:06:13;;;;;;;2.78;1.92;;;;;;;4.85;53.40;98877.75;4985577;28;20073;-59
2021/04/05 03:08:39;;;;;;;3.80;2.10;;;;;;;4.85;53.63;98859.78;4985556;28;20026;-58
2021/04/05 03:11:05;;;;;;;5.60;1.92;;;;;;;4.73;53.78;98854.78;4985594;28;20030;-58
2021/04/05 03:13:35;;;;;;;3.42;1.88;;;;;;;4.68;54.02;98854.00;4985603;28;20279;-58
2021/04/05 03:16:04;;;;;;;5.25;2.10;;;;;;;4.44;54.21;98812.38;4985411;28;20030;-58
2021/04/05 03:18:34;;;;;;;2.92;2.13;;;;;;;4.33;54.81;98789.41;4985472;28;20038;-58
2021/04/05 03:21:04;;;;;;;6.93;2.47;;;;;;;4.30;54.59;98792.88;4985257;28;20027;-59
2021/04/05 03:23:30;;;;;;;6.55;2.53;;;;;;;4.53;55.16;98834.50;4985337;28;20034;-59
2021/04/05 03:25:56;;;;;;;8.88;2.60;;;;;;;4.69;55.37;98848.00;4984531;28;20042;-59
2021/04/05 03:28:22;;;;;;;5.88;2.50;;;;;;;4.65;55.68;98852.31;4985233;28;20030;-58
2021/04/05 03:31:14;;;;;;;6.65;2.70;;;;;;;4.45;55.71;98868.75;5002669;28;20205;-58
2021/04/05 03:34:01;;;;;;;5.47;2.70;;;;;;;4.37;56.16;98856.88;5004454;28;20073;-57
2021/04/05 03:36:31;;;;;;;6.63;2.60;;;;;;;4.27;56.41;98859.53;4987491;28;20041;-59
2021/04/05 03:38:58;;;;;;;5.75;3.05;;;;;;;4.41;56.84;98843.19;5004591;28;20030;-58
2021/04/05 03:41:40;;;;;;;6.53;2.60;;;;;;;3.95;56.70;98794.06;5004470;28;20048;-59
2021/04/05 03:44:12;;;;;;;;;;;;;;;4.21;57.41;98863.88;5004837;28;20026;-59
2021/04/05 03:46:40;;;;;;;;;;;;;;;4.24;57.17;98868.97;5005057;28;20190;-58
2021/04/05 03:49:19;;;;;;;7.22;2.72;;;;;;;3.98;57.57;98803.44;5004630;28;20087;-58
2021/04/05 03:51:52;;;;;;;4.47;2.58;;;;;;;4.40;57.96;98867.09;5003496;28;20349;-58
2021/04/05 03:54:21;;;;;;;8.00;3.08;;;;;;;4.47;56.99;98868.75;5004268;28;20137;-58
2021/04/05 03:56:52;;;;;;;5.25;2.75;;;;;;;4.10;57.40;98805.88;5006106;28;20073;-59
2021/04/05 03:59:30;;;;;;;10.60;3.37;;;;;;;4.23;57.29;98850.19;5004279;28;20040;-59
2021/04/05 04:02:00;;;;;;;6.47;3.33;;;;;;;4.13;58.00;98833.19;5004242;28;20023;-58
2021/04/05 04:04:33;;;;;;;9.40;3.30;;;;;;;4.47;57.19;98873.88;5004100;28;20033;-59
2021/04/05 04:07:21;;;;;;;7.10;3.35;;;;;;;4.52;57.13;98895.19;5004077;28;20306;-58
2021/04/05 04:09:52;;;;;;;8.07;3.60;;;;;;;4.24;57.06;98882.63;5004008;28;20342;-58
2021/04/05 04:12:20;;;;;;;5.25;3.05;;;;;;;4.32;57.67;98869.75;5004008;28;20026;-58
2021/04/05 04:14:48;;;;;;;6.47;3.03;;;;;;;4.56;57.19;98871.22;5004245;28;20029;-58
2021/04/05 04:17:14;;;;;;;8.63;3.95;;;;;;;4.31;57.77;98862.91;5004056;28;20038;-59
2021/04/05 04:19:41;;;;;;;9.50;3.65;;;;;;;4.38;57.58;98851.75;5003800;28;20022;-58
2021/04/05 04:22:08;;;;;;;10.85;3.60;;;;;;;4.53;57.01;98868.66;5003602;28;20046;-58
2021/04/05 04:24:35;;;;;;;7.93;3.65;;;;;;;4.51;57.42;98859.31;5002554;28;20138;-59
2021/04/05 04:27:02;;;;;;;5.68;3.13;;;;;;;4.06;58.21;98858.03;5003676;28;20109;-58
2021/04/05 04:29:28;;;;;;;7.97;3.38;;;;;;;4.23;57.76;98860.44;5003624;28;20085;-58
2021/04/05 04:31:54;;;;;;;10.70;3.25;;;;;;;4.05;58.80;98856.31;5003667;28;20223;-58
2021/04/05 04:34:22;;;;;;;5.97;3.13;;;;;;;4.35;58.31;98850.91;5003492;28;20038;-57
2021/04/05 04:36:48;;;;;;;7.55;3.35;;;;;;;4.24;58.25;98844.19;5005761;28;20089;-58
2021/04/05 04:39:16;;;;;;;6.00;3.08;;;;;;;4.28;58.28;98856.09;5007588;28;20246;-58
2021/04/05 04:41:47;;;;;;;5.57;3.17;;;;;;;4.19;58.05;98792.13;5006358;28;20284;-58
2021/04/05 04:44:14;;;;;;;9.70;3.42;;;;;;;4.55;57.90;98851.56;5007379;28;20022;-60
2021/04/05 04:46:40;;;;;;;8.88;3.40;;;;;;;4.59;57.56;98842.13;5007478;28;20038;-60
2021/04/05 04:49:12;;;;;;;11.57;3.28;;;;;;;4.50;57.78;98855.88;5007156;28;20033;-59
2021/04/05 04:51:39;;;;;;;6.47;3.60;;;;;;;4.84;57.79;98847.81;5006853;28;20034;-59
2021/04/05 04:54:08;;;;;;;9.80;3.00;;;;;;;4.75;57.47;98860.75;5006857;28;20037;-59
2021/04/05 04:56:35;;;;;;;13.73;3.22;;;;;;;4.53;57.39;98778.94;5023992;28;20116;-59
2021/04/05 04:59:07;;;;;;;6.80;3.40;;;;;;;4.61;57.14;98817.31;5028428;28;20036;-59
2021/04/05 05:01:35;;;;;;;8.55;3.60;;;;;;;5.00;57.91;98844.22;5045777;28;20041;-57
2021/04/05 05:04:08;;;;;;;6.97;3.00;;;;;;;4.87;56.17;98781.09;5032636;28;20037;-58
2021/04/05 05:06:35;;;;;;;8.82;3.22;;;;;;;5.17;55.88;98832.88;5026600;28;20029;-59
2021/04/05 05:09:03;;;;;;;11.38;3.67;;;;;;;4.86;56.21;98784.53;5026601;28;20030;-59
2021/04/05 05:11:29;;;;;;;5.03;2.90;;;;;;;5.43;55.87;98831.66;5026561;28;20037;-58
2021/04/05 05:13:57;;;;;;;8.35;3.53;;;;;;;5.57;54.97;98834.84;5026607;28;20279;-58
2021/04/05 05:16:25;;;;;;;6.05;3.47;;;;;;;5.70;55.53;98846.66;5026835;28;20022;-58
2021/04/05 05:18:56;;;;;;;11.63;3.58;;;;;;;5.16;55.79;98824.31;5026623;28;20069;-58
2021/04/05 05:22:03;;;;;;;12.73;3.37;;;;;;;5.31;55.81;98832.69;5026388;28;20026;-60
2021/04/05 05:24:31;;;;;;;7.60;3.88;;;;;;;5.41;55.63;98828.28;5009348;28;20048;-59
2021/04/05 05:26:57;;;;;;;9.27;3.60;;;;;;;5.48;55.22;98829.88;5008964;28;20337;-59
2021/04/05 05:29:23;;;;;;;5.07;3.17;;;;;;;5.16;55.69;98836.31;5032473;28;20025;-60
2021/04/05 05:31:50;;;;;;;7.30;4.28;;;;;;;5.21;55.96;98834.53;5046209;28;20040;-59
2021/04/05 05:34:18;;;;;;;13.60;4.45;;;;;;;5.12;56.08;98816.69;5038557;28;20272;-60
2021/04/05 05:36:45;;;;;;;8.55;3.92;;;;;;;5.27;55.21;98826.75;5026189;28;20042;-59
2021/04/05 05:39:13;;;;;;;9.45;4.10;;;;;;;5.07;55.93;98816.75;5026257;28;20103;-58
2021/04/05 05:42:06;;;;;;;11.15;3.53;;;;;;;5.13;56.44;98821.81;5026349;28;20022;-57
2021/04/05 05:44:52;;;;;;;10.55;3.50;;;;;;;5.27;56.05;98824.19;5026005;28;20037;-58
2021/04/05 05:47:27;;;;;;;10.82;4.03;;;;;;;5.60;55.12;98824.56;5025235;28;20029;-58
2021/04/05 05:49:56;;;;;;;11.70;3.83;;;;;;;5.70;55.07;98820.97;5025783;28;20306;-58
2021/04/05 05:52:25;;;;;;;16.27;3.97;;;;;;;5.57;55.33;98822.03;5025839;28;20318;-58
2021/04/05 05:55:12;;;;;;;11.75;3.92;;;;;;;5.61;55.20;98825.41;5022823;28;20029;-59
2021/04/05 05:58:01;;;;;;;6.50;3.50;;;;;;;5.69;55.95;98824.41;5045495;28;20083;-59
2021/04/05 06:00:34;;;;;;;13.75;4.07;;;;;;;5.80;55.12;98831.09;5022312;28;20041;-59
2021/04/05 06:03:03;;;;;;;9.95;4.00;;;;;;;5.77;54.60;98816.59;5015255;28;20038;-58
2021/04/05 06:05:58;;;;;;;9.43;3.42;;;;;;;5.74;55.35;98819.19;5012140;28;20215;-58
2021/04/05 06:08:53;;;;;;;9.63;3.90;;;;;;;5.43;55.15;98786.31;5021792;28;20090;-59
2021/04/05 06:11:46;;;;;;;13.88;4.10;;;;;;;5.93;54.32;98818.88;5005909;28;20049;-59
2021/04/05 06:14:18;;;;;;;10.07;4.18;;;;;;;5.69;55.15;98809.00;5010550;28;20018;-59
2021/04/05 06:16:49;;;;;;;10.70;3.85;;;;;;;5.55;54.87;98767.28;5025443;28;20032;-59
2021/04/05 06:19:33;;;;;;;11.15;3.33;;;;;;;5.74;53.85;98790.09;5037134;28;20088;-59
2021/04/05 06:22:13;;;;;;;10.07;3.03;;;;;;;5.94;53.67;98818.03;5045036;28;20032;-59
2021/04/05 06:25:02;;;;;;;7.25;2.67;;;;;;;5.85;53.73;98817.28;5044944;28;20061;-60
2021/04/05 06:27:50;;;;;;;4.57;2.80;;;;;;;5.87;53.95;98814.69;5045160;28;20022;-60
2021/04/05 06:30:44;;;;;;;5.13;2.33;;;;;;;6.22;53.59;98813.28;5045240;28;20116;-60
2021/04/05 06:33:32;;;;;;;5.18;2.42;;;;;;;6.26;52.62;98809.78;5044923;28;20033;-59
2021/04/05 06:36:37;;;;;;;11.23;3.05;;;;;;;6.43;52.51;98800.91;5033665;28;20221;-59
2021/04/05 06:39:06;;;;;;;7.28;2.53;;;;;;;6.43;52.15;98811.19;5032099;28;20052;-60
2021/04/05 06:41:36;;;;;;;4.90;2.45;;;;;;;6.28;52.66;98813.16;5030194;28;20030;-60
2021/04/05 06:44:29;;;;;;;5.15;2.90;;;;;;;6.21;51.89;98804.75;5040458;28;20045;-59
2021/04/05 06:47:32;;;;;;;5.63;2.25;;;;;;;6.29;52.54;98807.16;5031482;28;20091;-59
2021/04/05 06:50:10;;;;;;;11.68;2.92;;;;;;;6.42;52.02;98805.22;5035402;28;20021;-59
2021/04/05 06:53:01;;;;;;;10.02;2.83;;;;;;;6.35;51.61;98801.91;5033395;28;20219;-58
2021/04/05 06:55:47;;;;;;;6.88;2.55;;;;;;;6.18;52.48;98802.19;5014959;28;20226;-61
2021/04/05 06:58:24;;;;;;;8.02;2.70;;;;;;;6.49;51.80;98811.09;5032666;28;20022;-60
2021/04/05 07:01:25;;;;;;;6.30;2.40;;;;;;;6.38;51.39;98809.56;5034924;28;20205;-62
2021/04/05 07:04:15;;;;;;;6.20;2.55;;;;;;;6.66;51.26;98809.03;5032826;28;20037;-61
2021/04/05 07:06:59;;;;;;;7.32;2.70;;;;;;;6.71;50.55;98806.34;5033111;28;20101;-61
2021/04/05 07:09:46;;;;;;;5.85;2.65;;;;;;;6.84;51.33;98818.13;5030397;28;20080;-59
2021/04/05 07:12:16;;;;;;;6.47;2.65;;;;;;;6.74;50.33;98780.56;5034012;28;20024;-59
2021/04/05 07:15:11;;;;;;;6.88;2.97;;;;;;;6.87;50.49;98800.03;5017079;28;20297;-60
2021/04/05 07:17:56;;;;;;;6.97;2.72;;;;;;;6.99;49.26;98800.66;5027182;28;20022;-59
2021/04/05 07:20:45;;;;;;;14.02;3.00;;;;;;;6.85;50.01;98798.38;5034321;28;20080;-59
2021/04/05 07:23:32;;;;;;;6.90;2.90;;;;;;;6.84;49.10;98809.53;5007449;28;20100;-59
2021/04/05 07:26:29;;;;;;;5.80;2.30;;;;;;;6.88;49.44;98799.16;5033772;28;20226;-59
2021/04/05 07:29:35;;;;;;;13.35;4.03;;;;;;;7.03;49.14;98803.13;4990831;28;20314;-58
2021/04/05 07:32:24;;;;;;;7.65;3.00;;;;;;;6.81;48.91;98804.44;5027345;28;20041;-60
2021/04/05 07:34:50;;;;;;;9.15;2.53;;;;;;;6.95;49.03;98794.72;5015633;28;20041;-58
2021/04/05 07:37:24;;;;;;;7.25;2.78;;;;;;;6.33;48.59;98739.38;5033063;28;20128;-58
2021/04/05 07:40:05;;;;;;;6.60;2.95;;;;;;;6.69;48.63;98819.25;5039209;28;20038;-59
2021/04/05 07:42:51;;;;;;;5.80;2.78;;;;;;;6.74;49.15;98796.88;5039637;28;20101;-59
2021/04/05 07:45:24;;;;;;;7.70;2.53;;;;;;;6.71;48.00;98802.09;5039652;28;20092;-59
2021/04/05 07:48:16;;;;;;;7.22;2.40;;;;;;;6.75;48.53;98779.69;5039080;28;20310;-59
2021/04/05 07:51:19;;;;;;;9.15;3.10;;;;;;;6.92;49.10;98787.06;5022462;28;20037;-59
2021/04/05 07:53:55;;;;;;;7.45;3.00;;;;;;;6.75;49.30;98782.25;5028086;28;20416;-59
2021/04/05 07:56:26;;;;;;;10.45;2.95;;;;;;;6.50;48.09;98720.16;5009752;28;20101;-59
2021/04/05 07:59:46;;;;;;;8.07;2.50;;;;;;;6.74;47.54;98778.84;5020652;28;20025;-59
2021/04/05 08:02:24;;;;;;;8.70;3.03;;;;;;;6.84;47.81;98787.25;4920938;29;20076;-59
2021/04/05 08:05:16;;;;;;;8.00;2.05;;;;;;;6.67;47.72;98787.59;5014025;28;20022;-60
2021/04/05 08:07:42;;;;;;;;;;;;;;;6.86;47.70;98787.19;5024163;28;20034;-58
2021/04/05 08:10:31;;;;;;;8.88;2.63;;;;;;;6.78;46.42;98778.78;5027452;28;19912;-58
2021/04/05 08:13:27;;;;;;;9.35;2.95;;;;;;;6.99;46.26;98780.06;5018951;28;20221;-59
2021/04/05 08:16:03;;;;;;;6.13;2.30;;;;;;;7.04;46.50;98773.06;5020236;28;20040;-59
2021/04/05 08:18:50;;;;;;;9.90;2.85;;;;;;;7.15;46.26;98776.25;5010329;28;20402;-59
2021/04/05 08:21:29;;;;;;;6.47;2.88;;;;;;;7.20;47.70;98768.44;5006707;28;20291;-56
2021/04/05 08:24:01;;;;;;;10.90;3.00;;;;;;;7.48;46.88;98768.66;5023120;28;20057;-57
2021/04/05 08:26:47;;;;;;;7.72;2.38;;;;;;;7.07;46.35;98760.16;5022651;28;20033;-58
2021/04/05 08:29:21;;;;;;;6.90;2.67;;;;;;;7.40;44.88;98761.09;5020461;28;20097;-57
2021/04/05 08:32:23;;;;;;;6.88;2.25;;;;;;;7.21;45.41;98757.25;5038617;28;20026;-57
2021/04/05 08:35:26;;;;;;;7.15;2.88;;;;;;;6.82;45.33;98754.69;5023369;28;20525;-58
2021/04/05 08:38:20;;;;;;;7.95;2.08;;;;;;;7.32;46.00;98760.44;5021968;28;20026;-58
2021/04/05 08:41:16;;;;;;;6.55;2.40;;;;;;;7.25;45.63;98697.94;5022947;28;20034;-58
2021/04/05 08:43:41;;;;;;;4.00;2.45;;;;;;;7.32;44.56;98747.53;5023208;28;20062;-58
2021/04/05 08:46:19;;;;;;;7.95;2.63;;;;;;;7.35;44.34;98752.63;5023241;28;20072;-58
2021/04/05 08:48:51;;;;;;;11.95;2.63;;;;;;;7.47;45.74;98724.88;5022733;28;20028;-62
2021/04/05 08:51:24;;;;;;;42.92;4.65;;;;;;;7.56;45.40;98728.06;5023170;28;20084;-58
2021/04/05 08:53:55;;;;;;;8.15;2.30;;;;;;;7.71;44.01;98744.03;5023031;28;20032;-58
2021/04/05 08:56:26;;;;;;;6.07;3.10;;;;;;;7.76;44.58;98725.00;5016595;28;20073;-57
2021/04/05 08:59:01;;;;;;;6.70;2.22;;;;;;;8.11;44.62;98728.41;5003643;28;20108;-59
2021/04/05 09:01:45;;;;;;;8.55;2.80;;;;;;;7.59;43.54;98688.50;5003300;28;20081;-58
2021/04/05 09:04:14;;;;;;;8.77;2.25;;;;;;;7.71;43.95;98732.00;5002199;28;20026;-58
2021/04/05 09:06:51;;;;;;;9.43;2.30;;;;;;;7.78;44.32;98675.97;5003205;28;20062;-58
2021/04/05 09:09:20;;;;;;;6.00;2.45;;;;;;;8.02;42.43;98731.19;5003083;28;20030;-58
2021/04/05 09:11:47;;;;;;;7.57;2.10;;;;;;;8.19;43.03;98724.75;5003187;28;20037;-58
2021/04/05 09:14:17;;;;;;;6.50;2.35;;;;;;;7.76;43.08;98676.03;5003210;28;20050;-59
2021/04/05 09:17:01;;;;;;;21.73;2.90;;;;;;;8.04;42.65;98728.63;5003311;28;20034;-57
2021/04/05 09:19:56;;;;;;;7.03;2.00;;;;;;;8.20;41.25;98655.06;5003231;28;20054;-58
2021/04/05 09:22:40;;;;;;;8.25;2.30;;;;;;;8.59;40.71;98708.19;4987234;28;20030;-60
2021/04/05 09:25:21;;;;;;;5.07;1.90;;;;;;;8.53;40.84;98708.38;5006380;28;20034;-57
2021/04/05 09:28:14;;;;;;;20.98;2.90;;;;;;;8.46;40.16;98712.84;5006027;28;20045;-58
2021/04/05 09:31:15;;;;;;;10.25;2.00;;;;;;;8.48;40.62;98708.50;5006811;28;20030;-59
2021/04/05 09:33:55;;;;;;;5.78;2.33;;;;;;;8.55;39.70;98706.56;4990948;28;20057;-59
2021/04/05 09:36:43;;;;;;;7.25;2.40;;;;;;;8.00;38.39;98649.66;5006599;28;20026;-60
2021/04/05 09:39:32;;;;;;;7.43;1.98;;;;;;;8.31;38.85;98647.03;5006601;28;20319;-59
2021/04/05 09:42:13;;;;;;;4.50;1.70;;;;;;;8.74;37.64;98697.41;5006542;28;20080;-59
2021/04/05 09:44:47;;;;;;;4.15;1.70;;;;;;;8.56;37.62;98703.09;4989241;28;20030;-59
2021/04/05 09:47:27;;;;;;;6.95;1.90;;;;;;;8.49;39.44;98691.28;5006428;28;20030;-59
2021/04/05 09:50:14;;;;;;;5.85;2.10;;;;;;;8.73;38.20;98695.69;5003705;28;20054;-59
2021/04/05 09:53:02;;;;;;;5.53;1.33;;;;;;;8.88;38.82;98685.81;5006208;28;20045;-59
2021/04/05 09:55:36;;;;;;;2.25;1.52;;;;;;;8.88;38.14;98668.59;4987538;28;20040;-59
2021/04/05 09:58:06;;;;;;;5.28;1.85;;;;;;;8.78;36.08;98680.09;5005376;28;20080;-59
2021/04/05 10:00:34;;;;;;;2.10;1.45;;;;;;;8.85;38.13;98670.41;5005840;28;20034;-58
2021/04/05 10:03:15;;;;;;;15.18;2.50;;;;;;;9.14;37.33;98677.25;5002823;28;20042;-59
2021/04/05 10:05:46;;;;;;;7.47;1.75;;;;;;;9.18;36.34;98665.06;4994965;28;20219;-59
2021/04/05 10:08:22;;;;;;;6.47;2.00;;;;;;;9.33;36.86;98669.75;5003254;28;20026;-59
2021/04/05 10:10:50;;;;;;;4.60;1.90;;;;;;;9.32;38.99;98648.25;5005456;28;20277;-58
2021/04/05 10:13:19;;;;;;;9.75;2.00;;;;;;;9.16;37.26;98636.72;5005358;28;20311;-58
2021/04/05 10:15:50;;;;;;;2.80;1.35;;;;;;;9.40;37.58;98660.06;5005389;28;20054;-58
2021/04/05 10:18:16;;;;;;;10.23;1.60;;;;;;;9.36;38.07;98642.97;5005177;28;20030;-59
2021/04/05 10:20:46;;;;;;;9.05;2.03;;;;;;;9.28;36.65;98636.31;5005185;28;20026;-59
2021/04/05 10:23:16;;;;;;;3.47;1.50;;;;;;;8.83;37.11;98644.66;5005316;28;20260;-59
2021/04/05 10:25:43;;;;;;;2.78;1.73;;;;;;;8.68;37.71;98638.22;5005265;28;20026;-59
2021/04/05 10:28:14;;;;;;;6.38;1.75;;;;;;;8.63;38.92;98651.25;5005372;28;20030;-59
2021/04/05 10:30:40;;;;;;;4.55;1.98;;;;;;;8.58;38.25;98641.97;5004697;28;20045;-58
2021/04/05 10:33:11;;;;;;;2.38;1.63;;;;;;;7.95;39.54;98599.06;5005264;28;20041;-59
2021/04/05 10:35:41;;;;;;;5.93;2.00;;;;;;;8.38;39.67;98621.88;5002800;28;20021;-59
2021/04/05 10:38:07;;;;;;;5.63;1.70;;;;;;;8.56;39.74;98605.06;5004897;28;20100;-59
2021/04/05 10:40:37;;;;;;;4.88;1.48;;;;;;;9.13;39.05;98627.31;5004995;28;20065;-60
2021/04/05 10:43:24;;;;;;;10.80;2.10;;;;;;;8.73;38.63;98566.66;5005281;28;20045;-60
2021/04/05 10:45:59;;;;;;;3.17;1.50;;;;;;;9.03;37.80;98613.03;5005153;28;20104;-59
2021/04/05 10:48:36;;;;;;;3.55;1.42;;;;;;;9.07;37.42;98619.78;5005234;28;20058;-60
2021/04/05 10:51:10;;;;;;;3.00;1.50;;;;;;;8.90;38.17;98547.19;5001928;28;20026;-61
2021/04/05 10:53:40;;;;;;;4.82;1.48;;;;;;;9.11;37.34;98602.47;5004780;28;20333;-60
2021/04/05 10:56:08;;;;;;;6.32;1.40;;;;;;;8.64;36.57;98585.03;5014608;28;20062;-59
2021/04/05 10:58:52;;;;;;;7.80;1.58;;;;;;;8.72;37.18;98587.34;5026857;28;20056;-60
2021/04/05 11:01:20;;;;;;;5.68;1.50;;;;;;;8.95;36.49;98584.00;5044431;28;20414;-60
2021/04/05 11:03:49;;;;;;;8.80;1.70;;;;;;;9.14;36.33;98584.28;5044123;28;20037;-59
2021/04/05 11:06:18;;;;;;;4.18;1.35;;;;;;;8.63;36.60;98529.13;5044704;28;20025;-60
2021/04/05 11:08:47;;;;;;;7.47;1.40;;;;;;;8.98;36.55;98581.34;5044019;28;20074;-61
2021/04/05 11:11:23;;;;;;;4.35;1.40;;;;;;;8.59;36.22;98535.28;5044202;28;20040;-59
2021/04/05 11:13:53;;;;;;;11.35;2.00;;;;;;;9.07;36.33;98572.47;5044471;28;20039;-59
2021/04/05 11:16:22;;;;;;;6.65;1.30;;;;;;;9.01;35.66;98529.59;5044098;28;20036;-59
2021/04/05 11:18:52;;;;;;;6.95;1.42;;;;;;;9.09;36.15;98563.78;5026295;28;20031;-59
2021/04/05 11:21:22;;;;;;;3.40;1.60;;;;;;;9.08;36.18;98544.00;5026430;28;20045;-60
2021/04/05 11:23:57;;;;;;;4.07;1.38;;;;;;;9.03;35.16;98532.13;5043638;28;20056;-60
2021/04/05 11:26:30;;;;;;;4.97;1.80;;;;;;;9.27;35.64;98513.19;5007719;28;20030;-59
2021/04/05 11:28:59;;;;;;;4.32;1.50;;;;;;;9.14;35.11;98576.53;5007510;28;20222;-60
2021/04/05 11:31:26;;;;;;;5.32;1.35;;;;;;;8.86;35.73;98571.41;5043391;28;20034;-59
2021/04/05 11:33:56;;;;;;;4.25;1.60;;;;;;;9.20;35.13;98552.22;5043359;28;20070;-58
2021/04/05 11:36:22;;;;;;;1.98;1.00;;;;;;;8.94;35.61;98559.94;5035085;28;20129;-59
2021/04/05 11:38:52;;;;;;;5.60;1.35;;;;;;;9.10;35.51;98562.84;5006003;28;20029;-60
2021/04/05 11:41:27;;;;;;;6.88;1.48;;;;;;;8.79;34.70;98507.09;5023766;28;20034;-61
2021/04/05 11:43:57;;;;;;;2.35;1.30;;;;;;;9.02;34.79;98540.75;5023970;28;20072;-59
2021/04/05 11:46:29;;;;;;;2.65;1.13;;;;;;;9.25;35.20;98556.34;5022832;28;20025;-60
2021/04/05 11:49:10;;;;;;;5.25;1.38;;;;;;;9.07;34.22;98551.78;5022573;28;20310;-60
2021/04/05 11:51:43;;;;;;;2.10;1.33;;;;;;;8.59;35.59;98494.84;5023715;28;20032;-59
2021/04/05 11:54:23;;;;;;;9.60;1.90;;;;;;;8.56;35.26;98494.09;5020013;28;20025;-60
2021/04/05 11:56:50;;;;;;;4.63;1.38;;;;;;;8.72;36.53;98520.22;5013481;28;20053;-60
2021/04/05 11:59:23;;;;;;;1.40;1.20;;;;;;;8.66;35.62;98486.91;5023599;28;20266;-59
2021/04/05 12:01:56;;;;;;;3.40;1.17;;;;;;;8.46;36.32;98489.25;5023575;28;20026;-59
2021/04/05 12:04:30;;;;;;;3.50;1.38;;;;;;;8.37;36.56;98455.13;5023592;28;20267;-60
2021/04/05 12:07:09;;;;;;;6.90;2.42;;;;;;;8.41;35.66;98487.69;5023631;28;20041;-59
2021/04/05 12:09:50;;;;;;;2.65;1.10;;;;;;;8.69;37.13;98535.81;5023571;28;20033;-60
2021/04/05 12:12:26;;;;;;;9.13;1.80;;;;;;;8.78;37.32;98523.47;5023582;28;20034;-60
2021/04/05 12:14:54;;;;;;;3.05;1.42;;;;;;;8.95;36.79;98532.38;5003873;28;20064;-59